sensor_id;sensor_type;location;lat;lon;timestamp;temperature;humidity
34837;DHT22;21053;50.848;4.652;2022-10-31T00:00:32;14.10;99.90
34837;DHT22;21053;50.848;4.652;2022-10-31T00:02:59;13.90;99.90
34837;DHT22;21053;50.848;4.652;2022-10-31T00:05:25;14.10;99.90
34837;DHT22;21053;50.848;4.652;2022-10-31T00:07:55;14.20;99.90
34837;DHT22;21053;50.848;4.652;2022-10-31T00:10:24;14.40;99.90
34837;DHT22;21053;50.848;4.652;2022-10-31T00:12:51;14.50;99.90
34837;DHT22;21053;50.848;4.652;2022-10-31T00:15:17;14.50;99.90
34837;DHT22;21053;50.848;4.652;2022-10-31T00:17:45;14.40;99.90
34837;DHT22;21053;50.848;4.652;2022-10-31T00:20:12;14.20;99.90
34837;DHT22;21053;50.848;4.652;2022-10-31T00:22:38;14.30;99.90
34837;DHT22;21053;50.848;4.652;2022-10-31T00:25:04;14.40;99.90
34837;DHT22;21053;50.848;4.652;2022-10-31T00:27:31;14.40;99.90
34837;DHT22;21053;50.848;4.652;2022-10-31T00:29:58;14.50;99.90
34837;DHT22;21053;50.848;4.652;2022-10-31T00:32:24;14.50;99.90
34837;DHT22;21053;50.848;4.652;2022-10-31T00:34:50;14.40;99.90
34837;DHT22;21053;50.848;4.652;2022-10-31T00:37:17;14.10;99.90
34837;DHT22;21053;50.848;4.652;2022-10-31T00:39:42;14.10;99.90
34837;DHT22;21053;50.848;4.652;2022-10-31T00:42:10;14.00;99.90
34837;DHT22;21053;50.848;4.652;2022-10-31T00:44:38;14.10;99.90
34837;DHT22;21053;50.848;4.652;2022-10-31T00:47:04;14.20;99.90
34837;DHT22;21053;50.848;4.652;2022-10-31T00:49:30;14.20;99.90
34837;DHT22;21053;50.848;4.652;2022-10-31T00:51:56;14.20;99.90
34837;DHT22;21053;50.848;4.652;2022-10-31T00:54:22;14.20;99.90
34837;DHT22;21053;50.848;4.652;2022-10-31T00:56:49;14.20;99.90
34837;DHT22;21053;50.848;4.652;2022-10-31T00:59:16;14.10;99.90
34837;DHT22;21053;50.848;4.652;2022-10-31T01:01:44;14.00;99.90
34837;DHT22;21053;50.848;4.652;2022-10-31T01:04:10;13.90;99.90
34837;DHT22;21053;50.848;4.652;2022-10-31T01:06:39;13.80;99.90
34837;DHT22;21053;50.848;4.652;2022-10-31T01:09:06;13.90;99.90
34837;DHT22;21053;50.848;4.652;2022-10-31T01:11:31;13.90;99.90
34837;DHT22;21053;50.848;4.652;2022-10-31T01:13:57;13.80;99.90
34837;DHT22;21053;50.848;4.652;2022-10-31T01:16:25;13.60;99.90
34837;DHT22;21053;50.848;4.652;2022-10-31T01:18:53;13.60;99.90
34837;DHT22;21053;50.848;4.652;2022-10-31T01:21:24;13.70;99.90
34837;DHT22;21053;50.848;4.652;2022-10-31T01:23:52;13.50;99.90
34837;DHT22;21053;50.848;4.652;2022-10-31T01:26:27;13.50;99.90
34837;DHT22;21053;50.848;4.652;2022-10-31T01:29:00;13.50;99.90
34837;DHT22;21053;50.848;4.652;2022-10-31T01:31:31;13.30;99.90
34837;DHT22;21053;50.848;4.652;2022-10-31T01:33:58;13.20;99.90
34837;DHT22;21053;50.848;4.652;2022-10-31T01:36:26;13.20;99.90
34837;DHT22;21053;50.848;4.652;2022-10-31T01:38:55;13.40;99.90
34837;DHT22;21053;50.848;4.652;2022-10-31T01:41:23;13.40;99.90
34837;DHT22;21053;50.848;4.652;2022-10-31T01:43:58;13.10;99.90
34837;DHT22;21053;50.848;4.652;2022-10-31T01:52:01;13.30;99.90
34837;DHT22;21053;50.848;4.652;2022-10-31T01:54:34;13.30;99.90
34837;DHT22;21053;50.848;4.652;2022-10-31T01:57:09;13.00;99.90
34837;DHT22;21053;50.848;4.652;2022-10-31T01:59:42;13.10;99.90
34837;DHT22;21053;50.848;4.652;2022-10-31T02:02:10;13.20;99.90
34837;DHT22;21053;50.848;4.652;2022-10-31T02:04:38;13.10;99.90
34837;DHT22;21053;50.848;4.652;2022-10-31T02:07:16;13.20;99.90
34837;DHT22;21053;50.848;4.652;2022-10-31T02:09:43;13.30;99.90
34837;DHT22;21053;50.848;4.652;2022-10-31T02:12:10;13.30;99.90
34837;DHT22;21053;50.848;4.652;2022-10-31T02:14:38;13.20;99.90
34837;DHT22;21053;50.848;4.652;2022-10-31T02:17:06;13.20;99.90
34837;DHT22;21053;50.848;4.652;2022-10-31T02:19:49;13.20;99.90
34837;DHT22;21053;50.848;4.652;2022-10-31T02:25:08;12.60;99.90
34837;DHT22;21053;50.848;4.652;2022-10-31T02:30:51;12.70;99.90
34837;DHT22;21053;50.848;4.652;2022-10-31T02:33:36;12.80;99.90
34837;DHT22;21053;50.848;4.652;2022-10-31T02:36:19;12.60;99.90
34837;DHT22;21053;50.848;4.652;2022-10-31T02:38:52;12.40;99.90
34837;DHT22;21053;50.848;4.652;2022-10-31T02:41:34;12.70;99.90
34837;DHT22;21053;50.848;4.652;2022-10-31T02:44:36;12.80;99.90
34837;DHT22;21053;50.848;4.652;2022-10-31T02:49:45;13.00;99.90
34837;DHT22;21053;50.848;4.652;2022-10-31T02:52:33;13.00;99.90
34837;DHT22;21053;50.848;4.652;2022-10-31T02:57:37;12.60;99.90
34837;DHT22;21053;50.848;4.652;2022-10-31T03:00:07;12.50;99.90
34837;DHT22;21053;50.848;4.652;2022-10-31T03:08:41;12.50;99.90
34837;DHT22;21053;50.848;4.652;2022-10-31T03:11:12;12.60;99.90
34837;DHT22;21053;50.848;4.652;2022-10-31T03:14:00;12.70;99.90
34837;DHT22;21053;50.848;4.652;2022-10-31T03:16:49;12.50;99.90
34837;DHT22;21053;50.848;4.652;2022-10-31T03:19:25;12.50;99.90
34837;DHT22;21053;50.848;4.652;2022-10-31T03:22:07;12.30;99.90
34837;DHT22;21053;50.848;4.652;2022-10-31T03:24:38;12.30;99.90
34837;DHT22;21053;50.848;4.652;2022-10-31T03:27:06;12.50;99.90
34837;DHT22;21053;50.848;4.652;2022-10-31T03:29:36;12.30;99.90
34837;DHT22;21053;50.848;4.652;2022-10-31T03:32:18;12.50;99.90
34837;DHT22;21053;50.848;4.652;2022-10-31T03:34:46;12.60;99.90
34837;DHT22;21053;50.848;4.652;2022-10-31T03:37:17;12.60;99.90
34837;DHT22;21053;50.848;4.652;2022-10-31T03:39:47;12.50;99.90
34837;DHT22;21053;50.848;4.652;2022-10-31T03:42:21;12.20;99.90
34837;DHT22;21053;50.848;4.652;2022-10-31T03:44:56;12.20;99.90
34837;DHT22;21053;50.848;4.652;2022-10-31T03:47:24;12.30;99.90
34837;DHT22;21053;50.848;4.652;2022-10-31T03:49:51;12.40;99.90
34837;DHT22;21053;50.848;4.652;2022-10-31T03:52:51;12.60;99.90
34837;DHT22;21053;50.848;4.652;2022-10-31T03:55:30;12.60;99.90
34837;DHT22;21053;50.848;4.652;2022-10-31T03:58:05;12.50;99.90
34837;DHT22;21053;50.848;4.652;2022-10-31T04:00:33;12.60;99.90
34837;DHT22;21053;50.848;4.652;2022-10-31T04:03:19;12.70;99.90
34837;DHT22;21053;50.848;4.652;2022-10-31T04:05:52;12.60;99.90
34837;DHT22;21053;50.848;4.652;2022-10-31T04:08:26;12.60;99.90
34837;DHT22;21053;50.848;4.652;2022-10-31T04:10:54;12.60;99.90
34837;DHT22;21053;50.848;4.652;2022-10-31T04:13:28;12.60;99.90
34837;DHT22;21053;50.848;4.652;2022-10-31T04:15:56;12.40;99.90
34837;DHT22;21053;50.848;4.652;2022-10-31T04:18:24;12.30;99.90
34837;DHT22;21053;50.848;4.652;2022-10-31T04:21:03;12.10;99.90
34837;DHT22;21053;50.848;4.652;2022-10-31T04:23:29;12.30;99.90
34837;DHT22;21053;50.848;4.652;2022-10-31T04:25:59;12.40;99.90
34837;DHT22;21053;50.848;4.652;2022-10-31T04:28:26;12.50;99.90
34837;DHT22;21053;50.848;4.652;2022-10-31T04:30:55;12.50;99.90
34837;DHT22;21053;50.848;4.652;2022-10-31T04:33:22;12.40;99.90
34837;DHT22;21053;50.848;4.652;2022-10-31T04:35:49;12.40;99.90
34837;DHT22;21053;50.848;4.652;2022-10-31T04:38:16;12.40;99.90
34837;DHT22;21053;50.848;4.652;2022-10-31T04:40:42;12.10;99.90
34837;DHT22;21053;50.848;4.652;2022-10-31T04:43:08;12.00;99.90
34837;DHT22;21053;50.848;4.652;2022-10-31T04:45:36;12.10;99.90
34837;DHT22;21053;50.848;4.652;2022-10-31T04:48:03;12.20;99.90
34837;DHT22;21053;50.848;4.652;2022-10-31T04:50:31;12.20;99.90
34837;DHT22;21053;50.848;4.652;2022-10-31T04:52:56;12.20;99.90
34837;DHT22;21053;50.848;4.652;2022-10-31T04:55:22;12.20;99.90
34837;DHT22;21053;50.848;4.652;2022-10-31T04:57:49;12.10;99.90
34837;DHT22;21053;50.848;4.652;2022-10-31T05:00:18;12.10;99.90
34837;DHT22;21053;50.848;4.652;2022-10-31T05:02:48;12.00;99.90
34837;DHT22;21053;50.848;4.652;2022-10-31T05:05:15;11.90;99.90
34837;DHT22;21053;50.848;4.652;2022-10-31T05:07:45;12.00;99.90
34837;DHT22;21053;50.848;4.652;2022-10-31T05:10:15;12.10;99.90
34837;DHT22;21053;50.848;4.652;2022-10-31T05:15:18;11.80;99.90
34837;DHT22;21053;50.848;4.652;2022-10-31T05:17:46;11.60;99.90
34837;DHT22;21053;50.848;4.652;2022-10-31T05:20:13;11.50;99.90
34837;DHT22;21053;50.848;4.652;2022-10-31T05:22:44;11.60;99.90
34837;DHT22;21053;50.848;4.652;2022-10-31T05:25:10;11.90;99.90
34837;DHT22;21053;50.848;4.652;2022-10-31T05:27:41;12.10;99.90
34837;DHT22;21053;50.848;4.652;2022-10-31T05:30:08;12.20;99.90
34837;DHT22;21053;50.848;4.652;2022-10-31T05:32:43;12.20;99.90
34837;DHT22;21053;50.848;4.652;2022-10-31T05:35:13;12.20;99.90
34837;DHT22;21053;50.848;4.652;2022-10-31T05:37:41;12.40;99.90
34837;DHT22;21053;50.848;4.652;2022-10-31T05:40:09;12.30;99.90
34837;DHT22;21053;50.848;4.652;2022-10-31T05:42:39;12.20;99.90
34837;DHT22;21053;50.848;4.652;2022-10-31T05:45:06;12.10;99.90
34837;DHT22;21053;50.848;4.652;2022-10-31T05:47:32;12.00;99.90
34837;DHT22;21053;50.848;4.652;2022-10-31T05:49:59;11.90;99.90
34837;DHT22;21053;50.848;4.652;2022-10-31T05:52:27;12.00;99.90
34837;DHT22;21053;50.848;4.652;2022-10-31T05:54:52;12.20;99.90
34837;DHT22;21053;50.848;4.652;2022-10-31T05:57:19;12.20;99.90
34837;DHT22;21053;50.848;4.652;2022-10-31T05:59:46;12.20;99.90
34837;DHT22;21053;50.848;4.652;2022-10-31T06:02:11;12.30;99.90
34837;DHT22;21053;50.848;4.652;2022-10-31T06:04:39;12.30;99.90
34837;DHT22;21053;50.848;4.652;2022-10-31T06:07:07;12.30;99.90
34837;DHT22;21053;50.848;4.652;2022-10-31T06:09:33;12.30;99.90
34837;DHT22;21053;50.848;4.652;2022-10-31T06:12:02;12.30;99.90
34837;DHT22;21053;50.848;4.652;2022-10-31T06:14:30;12.20;99.90
34837;DHT22;21053;50.848;4.652;2022-10-31T06:17:02;12.20;99.90
34837;DHT22;21053;50.848;4.652;2022-10-31T06:19:28;12.10;99.90
34837;DHT22;21053;50.848;4.652;2022-10-31T06:21:57;12.10;99.90
34837;DHT22;21053;50.848;4.652;2022-10-31T06:24:23;11.90;99.90
34837;DHT22;21053;50.848;4.652;2022-10-31T06:26:49;12.00;99.90
34837;DHT22;21053;50.848;4.652;2022-10-31T06:29:16;12.20;99.90
34837;DHT22;21053;50.848;4.652;2022-10-31T06:31:42;12.30;99.90
34837;DHT22;21053;50.848;4.652;2022-10-31T06:34:09;12.30;99.90
34837;DHT22;21053;50.848;4.652;2022-10-31T06:36:36;12.20;99.90
34837;DHT22;21053;50.848;4.652;2022-10-31T06:39:02;12.00;99.90
34837;DHT22;21053;50.848;4.652;2022-10-31T06:41:31;11.80;99.90
34837;DHT22;21053;50.848;4.652;2022-10-31T06:44:00;11.90;99.90
34837;DHT22;21053;50.848;4.652;2022-10-31T06:46:27;12.00;99.90
34837;DHT22;21053;50.848;4.652;2022-10-31T06:48:55;12.00;99.90
34837;DHT22;21053;50.848;4.652;2022-10-31T06:51:22;11.80;99.90
34837;DHT22;21053;50.848;4.652;2022-10-31T06:53:48;11.60;99.90
34837;DHT22;21053;50.848;4.652;2022-10-31T06:56:14;11.60;99.90
34837;DHT22;21053;50.848;4.652;2022-10-31T06:58:40;11.70;99.90
34837;DHT22;21053;50.848;4.652;2022-10-31T07:01:09;12.00;99.90
34837;DHT22;21053;50.848;4.652;2022-10-31T07:03:35;12.20;99.90
34837;DHT22;21053;50.848;4.652;2022-10-31T07:06:02;12.20;99.90
34837;DHT22;21053;50.848;4.652;2022-10-31T07:08:34;12.10;99.90
34837;DHT22;21053;50.848;4.652;2022-10-31T07:11:02;11.90;99.90
34837;DHT22;21053;50.848;4.652;2022-10-31T07:13:28;12.00;99.90
34837;DHT22;21053;50.848;4.652;2022-10-31T07:15:59;12.20;99.90
34837;DHT22;21053;50.848;4.652;2022-10-31T07:18:27;12.40;99.90
34837;DHT22;21053;50.848;4.652;2022-10-31T07:20:53;12.40;99.90
34837;DHT22;21053;50.848;4.652;2022-10-31T07:23:19;12.40;99.90
34837;DHT22;21053;50.848;4.652;2022-10-31T07:25:46;12.30;99.90
34837;DHT22;21053;50.848;4.652;2022-10-31T07:28:14;12.20;99.90
34837;DHT22;21053;50.848;4.652;2022-10-31T07:30:42;12.30;99.90
34837;DHT22;21053;50.848;4.652;2022-10-31T07:33:09;12.40;99.90
34837;DHT22;21053;50.848;4.652;2022-10-31T07:35:36;12.40;99.90
34837;DHT22;21053;50.848;4.652;2022-10-31T07:38:09;12.40;99.90
34837;DHT22;21053;50.848;4.652;2022-10-31T07:40:35;12.60;99.90
34837;DHT22;21053;50.848;4.652;2022-10-31T07:43:04;12.70;99.90
34837;DHT22;21053;50.848;4.652;2022-10-31T07:45:33;12.70;99.90
34837;DHT22;21053;50.848;4.652;2022-10-31T07:48:00;12.60;99.90
34837;DHT22;21053;50.848;4.652;2022-10-31T07:50:31;12.70;99.90
34837;DHT22;21053;50.848;4.652;2022-10-31T07:55:29;12.70;99.90
34837;DHT22;21053;50.848;4.652;2022-10-31T07:57:59;12.90;99.90
34837;DHT22;21053;50.848;4.652;2022-10-31T08:00:30;13.00;99.90
34837;DHT22;21053;50.848;4.652;2022-10-31T08:03:01;12.90;99.90
34837;DHT22;21053;50.848;4.652;2022-10-31T08:05:29;13.10;99.90
34837;DHT22;21053;50.848;4.652;2022-10-31T08:07:58;13.20;99.90
34837;DHT22;21053;50.848;4.652;2022-10-31T08:10:27;13.20;99.90
34837;DHT22;21053;50.848;4.652;2022-10-31T08:13:00;13.30;99.90
34837;DHT22;21053;50.848;4.652;2022-10-31T08:15:29;13.30;99.90
34837;DHT22;21053;50.848;4.652;2022-10-31T08:17:58;13.30;99.90
34837;DHT22;21053;50.848;4.652;2022-10-31T08:20:24;13.40;99.90
34837;DHT22;21053;50.848;4.652;2022-10-31T08:23:10;13.40;99.90
34837;DHT22;21053;50.848;4.652;2022-10-31T08:25:37;13.50;99.90
34837;DHT22;21053;50.848;4.652;2022-10-31T08:28:03;13.60;99.90
34837;DHT22;21053;50.848;4.652;2022-10-31T08:30:32;13.70;99.90
34837;DHT22;21053;50.848;4.652;2022-10-31T08:33:18;13.70;99.90
34837;DHT22;21053;50.848;4.652;2022-10-31T08:35:45;13.80;99.90
34837;DHT22;21053;50.848;4.652;2022-10-31T08:38:13;13.90;99.90
34837;DHT22;21053;50.848;4.652;2022-10-31T08:40:40;13.90;99.90
34837;DHT22;21053;50.848;4.652;2022-10-31T08:43:10;14.00;99.90
34837;DHT22;21053;50.848;4.652;2022-10-31T08:45:37;14.10;99.90
34837;DHT22;21053;50.848;4.652;2022-10-31T08:48:09;14.10;99.90
34837;DHT22;21053;50.848;4.652;2022-10-31T08:50:37;14.20;99.90
34837;DHT22;21053;50.848;4.652;2022-10-31T08:53:06;14.40;99.90
34837;DHT22;21053;50.848;4.652;2022-10-31T08:55:36;14.50;99.90
34837;DHT22;21053;50.848;4.652;2022-10-31T08:58:06;14.50;99.90
34837;DHT22;21053;50.848;4.652;2022-10-31T09:00:35;14.50;99.90
34837;DHT22;21053;50.848;4.652;2022-10-31T09:03:05;14.50;99.90
34837;DHT22;21053;50.848;4.652;2022-10-31T09:05:31;14.50;99.90
34837;DHT22;21053;50.848;4.652;2022-10-31T09:07:58;14.70;99.90
34837;DHT22;21053;50.848;4.652;2022-10-31T09:10:25;14.70;99.90
34837;DHT22;21053;50.848;4.652;2022-10-31T09:13:09;14.70;99.90
34837;DHT22;21053;50.848;4.652;2022-10-31T09:15:36;14.80;99.90
34837;DHT22;21053;50.848;4.652;2022-10-31T09:18:04;14.90;99.90
34837;DHT22;21053;50.848;4.652;2022-10-31T09:20:35;14.90;99.90
34837;DHT22;21053;50.848;4.652;2022-10-31T09:23:05;15.00;99.90
34837;DHT22;21053;50.848;4.652;2022-10-31T09:25:34;15.00;99.90
34837;DHT22;21053;50.848;4.652;2022-10-31T09:28:04;15.10;99.90
34837;DHT22;21053;50.848;4.652;2022-10-31T09:30:34;15.20;99.90
34837;DHT22;21053;50.848;4.652;2022-10-31T09:33:05;15.40;99.90
34837;DHT22;21053;50.848;4.652;2022-10-31T09:35:32;15.40;99.90
34837;DHT22;21053;50.848;4.652;2022-10-31T09:38:06;15.50;99.90
34837;DHT22;21053;50.848;4.652;2022-10-31T09:40:47;15.50;99.90
34837;DHT22;21053;50.848;4.652;2022-10-31T09:43:22;15.60;99.90
34837;DHT22;21053;50.848;4.652;2022-10-31T09:46:15;15.60;99.90
34837;DHT22;21053;50.848;4.652;2022-10-31T09:48:55;15.60;99.90
34837;DHT22;21053;50.848;4.652;2022-10-31T09:51:34;15.70;99.90
34837;DHT22;21053;50.848;4.652;2022-10-31T09:54:15;15.80;99.90
34837;DHT22;21053;50.848;4.652;2022-10-31T09:56:44;15.90;99.90
34837;DHT22;21053;50.848;4.652;2022-10-31T09:59:25;16.00;99.90
34837;DHT22;21053;50.848;4.652;2022-10-31T10:02:19;16.20;99.90
34837;DHT22;21053;50.848;4.652;2022-10-31T10:04:57;16.20;99.90
34837;DHT22;21053;50.848;4.652;2022-10-31T10:08:32;16.30;99.90
34837;DHT22;21053;50.848;4.652;2022-10-31T10:30:16;16.60;99.90
34837;DHT22;21053;50.848;4.652;2022-10-31T10:32:54;16.70;99.90
34837;DHT22;21053;50.848;4.652;2022-10-31T10:35:38;16.70;99.90
34837;DHT22;21053;50.848;4.652;2022-10-31T10:38:14;16.70;99.90
34837;DHT22;21053;50.848;4.652;2022-10-31T10:40:41;16.90;99.90
34837;DHT22;21053;50.848;4.652;2022-10-31T10:43:26;17.00;99.90
34837;DHT22;21053;50.848;4.652;2022-10-31T10:46:17;17.20;99.90
34837;DHT22;21053;50.848;4.652;2022-10-31T10:52:01;18.10;99.90
34837;DHT22;21053;50.848;4.652;2022-10-31T10:59:53;19.20;99.90
34837;DHT22;21053;50.848;4.652;2022-10-31T11:02:23;19.90;99.90
34837;DHT22;21053;50.848;4.652;2022-10-31T11:04:57;20.90;99.90
34837;DHT22;21053;50.848;4.652;2022-10-31T11:07:23;22.10;99.90
34837;DHT22;21053;50.848;4.652;2022-10-31T11:09:50;22.50;99.90
34837;DHT22;21053;50.848;4.652;2022-10-31T11:12:29;22.50;99.90
34837;DHT22;21053;50.848;4.652;2022-10-31T11:15:07;22.60;99.90
34837;DHT22;21053;50.848;4.652;2022-10-31T11:17:39;22.20;99.90
34837;DHT22;21053;50.848;4.652;2022-10-31T11:22:39;21.40;99.90
34837;DHT22;21053;50.848;4.652;2022-10-31T11:25:26;21.00;99.90
34837;DHT22;21053;50.848;4.652;2022-10-31T11:28:05;20.80;99.90
34837;DHT22;21053;50.848;4.652;2022-10-31T11:30:41;20.70;99.90
34837;DHT22;21053;50.848;4.652;2022-10-31T11:33:18;20.80;99.90
34837;DHT22;21053;50.848;4.652;2022-10-31T11:35:47;21.00;99.90
34837;DHT22;21053;50.848;4.652;2022-10-31T11:38:26;21.60;99.90
34837;DHT22;21053;50.848;4.652;2022-10-31T11:41:17;22.00;99.90
34837;DHT22;21053;50.848;4.652;2022-10-31T11:46:41;23.80;98.20
34837;DHT22;21053;50.848;4.652;2022-10-31T11:49:19;25.20;96.00
34837;DHT22;21053;50.848;4.652;2022-10-31T11:51:53;26.50;93.70
34837;DHT22;21053;50.848;4.652;2022-10-31T11:54:31;27.30;92.30
34837;DHT22;21053;50.848;4.652;2022-10-31T11:56:59;27.30;90.80
34837;DHT22;21053;50.848;4.652;2022-10-31T11:59:31;27.40;90.10
34837;DHT22;21053;50.848;4.652;2022-10-31T12:02:00;27.50;90.60
34837;DHT22;21053;50.848;4.652;2022-10-31T12:05:30;27.80;90.10
34837;DHT22;21053;50.848;4.652;2022-10-31T12:07:37;27.90;87.60
34837;DHT22;21053;50.848;4.652;2022-10-31T12:10:10;28.20;88.20
34837;DHT22;21053;50.848;4.652;2022-10-31T12:15:33;28.10;85.80
34837;DHT22;21053;50.848;4.652;2022-10-31T12:18:28;28.20;85.50
34837;DHT22;21053;50.848;4.652;2022-10-31T12:26:45;28.90;83.40
34837;DHT22;21053;50.848;4.652;2022-10-31T12:41:20;29.50;79.50
34837;DHT22;21053;50.848;4.652;2022-10-31T12:44:05;29.90;79.20
34837;DHT22;21053;50.848;4.652;2022-10-31T12:46:55;30.40;78.00
34837;DHT22;21053;50.848;4.652;2022-10-31T12:58:23;30.90;75.00
34837;DHT22;21053;50.848;4.652;2022-10-31T13:06:48;31.40;72.40
34837;DHT22;21053;50.848;4.652;2022-10-31T13:09:19;29.90;74.60
34837;DHT22;21053;50.848;4.652;2022-10-31T13:11:53;29.00;76.00
34837;DHT22;21053;50.848;4.652;2022-10-31T13:14:24;27.70;78.10
34837;DHT22;21053;50.848;4.652;2022-10-31T13:16:51;26.60;82.70
34837;DHT22;21053;50.848;4.652;2022-10-31T13:19:22;26.00;85.40
34837;DHT22;21053;50.848;4.652;2022-10-31T13:22:16;25.50;86.70
34837;DHT22;21053;50.848;4.652;2022-10-31T13:24:54;25.20;86.50
34837;DHT22;21053;50.848;4.652;2022-10-31T13:27:24;24.80;87.90
34837;DHT22;21053;50.848;4.652;2022-10-31T13:30:03;24.20;90.10
34837;DHT22;21053;50.848;4.652;2022-10-31T13:32:40;23.70;90.40
34837;DHT22;21053;50.848;4.652;2022-10-31T13:43:43;22.60;92.90
34837;DHT22;21053;50.848;4.652;2022-10-31T13:46:24;22.40;93.40
34837;DHT22;21053;50.848;4.652;2022-10-31T13:48:50;22.20;94.00
34837;DHT22;21053;50.848;4.652;2022-10-31T13:51:25;22.00;94.20
34837;DHT22;21053;50.848;4.652;2022-10-31T13:56:57;21.60;95.10
34837;DHT22;21053;50.848;4.652;2022-10-31T13:59:26;21.40;95.90
34837;DHT22;21053;50.848;4.652;2022-10-31T14:02:15;21.30;96.50
34837;DHT22;21053;50.848;4.652;2022-10-31T14:04:47;21.10;96.90
34837;DHT22;21053;50.848;4.652;2022-10-31T14:07:17;21.00;97.10
34837;DHT22;21053;50.848;4.652;2022-10-31T14:09:57;21.00;97.10
34837;DHT22;21053;50.848;4.652;2022-10-31T14:12:44;20.80;97.10
34837;DHT22;21053;50.848;4.652;2022-10-31T14:15:19;20.60;97.80
34837;DHT22;21053;50.848;4.652;2022-10-31T14:17:52;20.70;97.80
34837;DHT22;21053;50.848;4.652;2022-10-31T14:20:31;20.50;98.00
34837;DHT22;21053;50.848;4.652;2022-10-31T14:23:09;20.50;98.20
34837;DHT22;21053;50.848;4.652;2022-10-31T14:25:37;20.50;98.60
34837;DHT22;21053;50.848;4.652;2022-10-31T14:28:32;20.50;98.30
34837;DHT22;21053;50.848;4.652;2022-10-31T14:30:59;20.60;98.50
34837;DHT22;21053;50.848;4.652;2022-10-31T14:33:28;20.60;99.10
34837;DHT22;21053;50.848;4.652;2022-10-31T14:36:17;20.50;98.90
34837;DHT22;21053;50.848;4.652;2022-10-31T14:41:58;20.40;98.70
34837;DHT22;21053;50.848;4.652;2022-10-31T14:47:35;20.20;99.30
34837;DHT22;21053;50.848;4.652;2022-10-31T14:52:50;20.20;99.80
34837;DHT22;21053;50.848;4.652;2022-10-31T14:55:18;20.10;99.90
34837;DHT22;21053;50.848;4.652;2022-10-31T14:57:55;20.10;99.90
34837;DHT22;21053;50.848;4.652;2022-10-31T15:00:23;20.10;99.90
34837;DHT22;21053;50.848;4.652;2022-10-31T15:05:27;20.10;99.90
34837;DHT22;21053;50.848;4.652;2022-10-31T15:07:57;20.10;99.90
34837;DHT22;21053;50.848;4.652;2022-10-31T15:10:31;20.00;99.90
34837;DHT22;21053;50.848;4.652;2022-10-31T15:13:28;20.00;99.90
34837;DHT22;21053;50.848;4.652;2022-10-31T15:15:55;19.90;99.90
34837;DHT22;21053;50.848;4.652;2022-10-31T15:18:24;19.80;99.90
34837;DHT22;21053;50.848;4.652;2022-10-31T15:20:52;19.80;99.90
34837;DHT22;21053;50.848;4.652;2022-10-31T15:23:24;19.70;99.90
34837;DHT22;21053;50.848;4.652;2022-10-31T15:26:02;19.70;99.90
34837;DHT22;21053;50.848;4.652;2022-10-31T15:28:29;19.60;99.90
34837;DHT22;21053;50.848;4.652;2022-10-31T15:31:00;19.50;99.90
34837;DHT22;21053;50.848;4.652;2022-10-31T15:33:30;19.30;99.90
34837;DHT22;21053;50.848;4.652;2022-10-31T15:36:01;19.40;99.90
34837;DHT22;21053;50.848;4.652;2022-10-31T15:38:29;19.30;99.90
34837;DHT22;21053;50.848;4.652;2022-10-31T15:43:23;19.10;99.90
34837;DHT22;21053;50.848;4.652;2022-10-31T15:45:49;19.00;99.90
34837;DHT22;21053;50.848;4.652;2022-10-31T15:48:19;19.10;99.90
34837;DHT22;21053;50.848;4.652;2022-10-31T15:50:53;18.80;99.90
34837;DHT22;21053;50.848;4.652;2022-10-31T15:53:27;18.80;99.90
34837;DHT22;21053;50.848;4.652;2022-10-31T15:56:01;18.70;99.90
34837;DHT22;21053;50.848;4.652;2022-10-31T15:58:31;18.60;99.90
34837;DHT22;21053;50.848;4.652;2022-10-31T16:01:00;18.50;99.90
34837;DHT22;21053;50.848;4.652;2022-10-31T16:03:28;18.30;99.90
34837;DHT22;21053;50.848;4.652;2022-10-31T16:05:58;18.20;99.90
34837;DHT22;21053;50.848;4.652;2022-10-31T16:13:52;18.10;99.90
34837;DHT22;21053;50.848;4.652;2022-10-31T16:16:21;18.20;99.90
34837;DHT22;21053;50.848;4.652;2022-10-31T16:18:53;17.90;99.90
34837;DHT22;21053;50.848;4.652;2022-10-31T16:21:34;17.80;99.90
34837;DHT22;21053;50.848;4.652;2022-10-31T16:24:13;17.80;99.90
34837;DHT22;21053;50.848;4.652;2022-10-31T16:26:41;17.90;99.90
34837;DHT22;21053;50.848;4.652;2022-10-31T16:29:32;17.80;99.90
34837;DHT22;21053;50.848;4.652;2022-10-31T16:31:58;17.80;99.90
34837;DHT22;21053;50.848;4.652;2022-10-31T16:34:25;17.70;99.90
34837;DHT22;21053;50.848;4.652;2022-10-31T16:36:52;17.70;99.90
34837;DHT22;21053;50.848;4.652;2022-10-31T16:39:20;17.60;99.90
34837;DHT22;21053;50.848;4.652;2022-10-31T16:41:50;17.30;99.90
34837;DHT22;21053;50.848;4.652;2022-10-31T16:44:24;17.20;99.90
34837;DHT22;21053;50.848;4.652;2022-10-31T16:47:13;17.20;99.90
34837;DHT22;21053;50.848;4.652;2022-10-31T16:49:39;16.90;99.90
34837;DHT22;21053;50.848;4.652;2022-10-31T16:52:07;16.90;99.90
34837;DHT22;21053;50.848;4.652;2022-10-31T16:54:33;16.90;99.90
34837;DHT22;21053;50.848;4.652;2022-10-31T16:57:03;16.80;99.90
34837;DHT22;21053;50.848;4.652;2022-10-31T16:59:29;16.60;99.90
34837;DHT22;21053;50.848;4.652;2022-10-31T17:01:56;16.50;99.90
34837;DHT22;21053;50.848;4.652;2022-10-31T17:04:24;16.50;99.90
34837;DHT22;21053;50.848;4.652;2022-10-31T17:06:49;16.60;99.90
34837;DHT22;21053;50.848;4.652;2022-10-31T17:09:16;16.40;99.90
34837;DHT22;21053;50.848;4.652;2022-10-31T17:11:47;16.30;99.90
34837;DHT22;21053;50.848;4.652;2022-10-31T17:14:15;16.40;99.90
34837;DHT22;21053;50.848;4.652;2022-10-31T17:16:43;16.30;99.90
34837;DHT22;21053;50.848;4.652;2022-10-31T17:19:12;16.20;99.90
34837;DHT22;21053;50.848;4.652;2022-10-31T17:21:39;16.00;99.90
34837;DHT22;21053;50.848;4.652;2022-10-31T17:24:05;16.00;99.90
34837;DHT22;21053;50.848;4.652;2022-10-31T17:26:31;16.10;99.90
34837;DHT22;21053;50.848;4.652;2022-10-31T17:28:57;16.00;99.90
34837;DHT22;21053;50.848;4.652;2022-10-31T17:31:29;16.00;99.90
34837;DHT22;21053;50.848;4.652;2022-10-31T17:33:56;15.90;99.90
34837;DHT22;21053;50.848;4.652;2022-10-31T17:36:25;15.80;99.90
34837;DHT22;21053;50.848;4.652;2022-10-31T17:38:52;15.90;99.90
34837;DHT22;21053;50.848;4.652;2022-10-31T17:43:46;15.80;99.90
34837;DHT22;21053;50.848;4.652;2022-10-31T17:46:13;15.80;99.90
34837;DHT22;21053;50.848;4.652;2022-10-31T17:48:40;15.80;99.90
34837;DHT22;21053;50.848;4.652;2022-10-31T17:51:06;15.80;99.90
34837;DHT22;21053;50.848;4.652;2022-10-31T17:53:32;15.80;99.90
34837;DHT22;21053;50.848;4.652;2022-10-31T17:56:03;15.70;99.90
34837;DHT22;21053;50.848;4.652;2022-10-31T17:58:30;15.70;99.90
34837;DHT22;21053;50.848;4.652;2022-10-31T18:00:56;15.70;99.90
34837;DHT22;21053;50.848;4.652;2022-10-31T18:03:22;15.60;99.90
34837;DHT22;21053;50.848;4.652;2022-10-31T18:05:56;15.70;99.90